sensor_id;sensor_type;location;lat;lon;timestamp;P1;durP1;ratioP1;P2;durP2;ratioP2
23068;SDS011;11702;50.856;4.348;2022-07-26T00:01:58;16.90;;;2.88;;
23068;SDS011;11702;50.856;4.348;2022-07-26T00:04:23;11.60;;;2.92;;
23068;SDS011;11702;50.856;4.348;2022-07-26T00:06:49;10.13;;;2.80;;
23068;SDS011;11702;50.856;4.348;2022-07-26T00:09:15;10.85;;;2.60;;
23068;SDS011;11702;50.856;4.348;2022-07-26T00:11:41;6.78;;;2.08;;
23068;SDS011;11702;50.856;4.348;2022-07-26T00:14:07;11.30;;;2.75;;
23068;SDS011;11702;50.856;4.348;2022-07-26T00:16:33;11.82;;;2.42;;
23068;SDS011;11702;50.856;4.348;2022-07-26T00:18:59;11.18;;;2.80;;
23068;SDS011;11702;50.856;4.348;2022-07-26T00:21:25;16.52;;;3.08;;
23068;SDS011;11702;50.856;4.348;2022-07-26T00:23:51;8.80;;;2.72;;
23068;SDS011;11702;50.856;4.348;2022-07-26T00:26:16;11.52;;;3.13;;
23068;SDS011;11702;50.856;4.348;2022-07-26T00:28:42;7.47;;;2.90;;
23068;SDS011;11702;50.856;4.348;2022-07-26T00:31:08;8.27;;;2.85;;
23068;SDS011;11702;50.856;4.348;2022-07-26T00:33:36;13.65;;;4.03;;
23068;SDS011;11702;50.856;4.348;2022-07-26T00:36:01;14.23;;;2.83;;
23068;SDS011;11702;50.856;4.348;2022-07-26T00:38:27;14.43;;;3.00;;
23068;SDS011;11702;50.856;4.348;2022-07-26T00:40:53;12.32;;;2.75;;
23068;SDS011;11702;50.856;4.348;2022-07-26T00:43:18;12.65;;;2.72;;
23068;SDS011;11702;50.856;4.348;2022-07-26T00:45:44;16.35;;;3.15;;
23068;SDS011;11702;50.856;4.348;2022-07-26T00:48:10;12.15;;;3.10;;
23068;SDS011;11702;50.856;4.348;2022-07-26T00:50:35;9.50;;;3.00;;
23068;SDS011;11702;50.856;4.348;2022-07-26T00:53:01;21.70;;;3.60;;
23068;SDS011;11702;50.856;4.348;2022-07-26T00:55:27;10.15;;;3.45;;
23068;SDS011;11702;50.856;4.348;2022-07-26T00:57:53;11.10;;;3.22;;
23068;SDS011;11702;50.856;4.348;2022-07-26T01:00:20;10.05;;;2.97;;
23068;SDS011;11702;50.856;4.348;2022-07-26T01:02:47;16.25;;;3.35;;
23068;SDS011;11702;50.856;4.348;2022-07-26T01:05:15;17.15;;;3.08;;
23068;SDS011;11702;50.856;4.348;2022-07-26T01:07:40;15.43;;;3.75;;
23068;SDS011;11702;50.856;4.348;2022-07-26T01:10:08;16.25;;;3.40;;
23068;SDS011;11702;50.856;4.348;2022-07-26T01:12:37;8.27;;;3.00;;
23068;SDS011;11702;50.856;4.348;2022-07-26T01:15:07;14.93;;;2.95;;
23068;SDS011;11702;50.856;4.348;2022-07-26T01:17:34;10.55;;;2.90;;
23068;SDS011;11702;50.856;4.348;2022-07-26T01:20:00;9.20;;;2.60;;
23068;SDS011;11702;50.856;4.348;2022-07-26T01:22:25;16.30;;;3.42;;
23068;SDS011;11702;50.856;4.348;2022-07-26T01:24:51;15.57;;;2.90;;
23068;SDS011;11702;50.856;4.348;2022-07-26T01:27:17;10.85;;;3.67;;
23068;SDS011;11702;50.856;4.348;2022-07-26T01:29:42;11.63;;;3.03;;
23068;SDS011;11702;50.856;4.348;2022-07-26T01:32:08;10.20;;;3.38;;
23068;SDS011;11702;50.856;4.348;2022-07-26T01:34:34;8.73;;;2.83;;
23068;SDS011;11702;50.856;4.348;2022-07-26T01:36:59;14.93;;;3.92;;
23068;SDS011;11702;50.856;4.348;2022-07-26T01:39:26;11.25;;;2.97;;
23068;SDS011;11702;50.856;4.348;2022-07-26T01:41:52;17.02;;;3.22;;
23068;SDS011;11702;50.856;4.348;2022-07-26T01:44:18;16.05;;;3.30;;
23068;SDS011;11702;50.856;4.348;2022-07-26T01:46:44;10.27;;;3.28;;
23068;SDS011;11702;50.856;4.348;2022-07-26T01:49:09;11.82;;;3.35;;
23068;SDS011;11702;50.856;4.348;2022-07-26T01:51:35;13.90;;;4.10;;
23068;SDS011;11702;50.856;4.348;2022-07-26T01:54:01;15.13;;;4.10;;
23068;SDS011;11702;50.856;4.348;2022-07-26T01:56:26;14.00;;;3.65;;
23068;SDS011;11702;50.856;4.348;2022-07-26T01:58:52;10.82;;;3.20;;
23068;SDS011;11702;50.856;4.348;2022-07-26T02:01:18;14.65;;;3.47;;
23068;SDS011;11702;50.856;4.348;2022-07-26T02:03:43;13.98;;;3.35;;
23068;SDS011;11702;50.856;4.348;2022-07-26T02:06:09;13.95;;;3.70;;
23068;SDS011;11702;50.856;4.348;2022-07-26T02:08:34;12.25;;;3.25;;
23068;SDS011;11702;50.856;4.348;2022-07-26T02:11:00;13.70;;;3.00;;
23068;SDS011;11702;50.856;4.348;2022-07-26T02:13:41;16.20;;;3.40;;
23068;SDS011;11702;50.856;4.348;2022-07-26T02:18:34;11.15;;;3.00;;
23068;SDS011;11702;50.856;4.348;2022-07-26T02:21:02;21.75;;;4.43;;
23068;SDS011;11702;50.856;4.348;2022-07-26T02:23:28;15.25;;;3.28;;
23068;SDS011;11702;50.856;4.348;2022-07-26T02:25:54;13.88;;;3.42;;
23068;SDS011;11702;50.856;4.348;2022-07-26T02:28:20;18.25;;;3.60;;
23068;SDS011;11702;50.856;4.348;2022-07-26T02:30:46;15.43;;;3.60;;
23068;SDS011;11702;50.856;4.348;2022-07-26T02:33:12;13.75;;;3.47;;
23068;SDS011;11702;50.856;4.348;2022-07-26T02:35:38;12.30;;;3.08;;
23068;SDS011;11702;50.856;4.348;2022-07-26T02:38:06;14.73;;;3.92;;
23068;SDS011;11702;50.856;4.348;2022-07-26T02:40:37;17.98;;;3.92;;
23068;SDS011;11702;50.856;4.348;2022-07-26T02:43:03;16.83;;;4.15;;
23068;SDS011;11702;50.856;4.348;2022-07-26T02:45:31;18.73;;;3.85;;
23068;SDS011;11702;50.856;4.348;2022-07-26T02:47:57;15.45;;;4.18;;
23068;SDS011;11702;50.856;4.348;2022-07-26T02:50:23;17.83;;;3.42;;
23068;SDS011;11702;50.856;4.348;2022-07-26T02:52:50;14.45;;;4.00;;
23068;SDS011;11702;50.856;4.348;2022-07-26T02:55:23;15.13;;;4.55;;
23068;SDS011;11702;50.856;4.348;2022-07-26T02:57:50;17.38;;;4.35;;
23068;SDS011;11702;50.856;4.348;2022-07-26T03:00:17;22.48;;;4.35;;
23068;SDS011;11702;50.856;4.348;2022-07-26T03:02:45;14.93;;;3.78;;
23068;SDS011;11702;50.856;4.348;2022-07-26T03:05:13;18.83;;;4.32;;
23068;SDS011;11702;50.856;4.348;2022-07-26T03:07:39;16.67;;;3.85;;
23068;SDS011;11702;50.856;4.348;2022-07-26T03:10:05;16.08;;;3.60;;
23068;SDS011;11702;50.856;4.348;2022-07-26T03:12:31;17.08;;;4.13;;
23068;SDS011;11702;50.856;4.348;2022-07-26T03:14:57;18.02;;;3.72;;
23068;SDS011;11702;50.856;4.348;2022-07-26T03:17:22;21.02;;;4.00;;
23068;SDS011;11702;50.856;4.348;2022-07-26T03:19:48;13.80;;;3.67;;
23068;SDS011;11702;50.856;4.348;2022-07-26T03:22:14;17.65;;;3.90;;
23068;SDS011;11702;50.856;4.348;2022-07-26T03:24:39;15.48;;;4.05;;
23068;SDS011;11702;50.856;4.348;2022-07-26T03:27:05;12.35;;;2.90;;
23068;SDS011;11702;50.856;4.348;2022-07-26T03:29:30;18.35;;;3.83;;
23068;SDS011;11702;50.856;4.348;2022-07-26T03:31:56;14.38;;;3.53;;
23068;SDS011;11702;50.856;4.348;2022-07-26T03:34:22;15.00;;;3.15;;
23068;SDS011;11702;50.856;4.348;2022-07-26T03:36:48;18.50;;;4.80;;
23068;SDS011;11702;50.856;4.348;2022-07-26T03:39:13;14.68;;;3.67;;
23068;SDS011;11702;50.856;4.348;2022-07-26T03:41:39;19.52;;;4.43;;
23068;SDS011;11702;50.856;4.348;2022-07-26T03:44:04;20.98;;;4.20;;
23068;SDS011;11702;50.856;4.348;2022-07-26T03:46:30;18.75;;;4.22;;
23068;SDS011;11702;50.856;4.348;2022-07-26T03:48:56;14.43;;;3.72;;
23068;SDS011;11702;50.856;4.348;2022-07-26T03:51:22;14.10;;;3.40;;
23068;SDS011;11702;50.856;4.348;2022-07-26T03:53:47;15.30;;;4.28;;
23068;SDS011;11702;50.856;4.348;2022-07-26T03:56:13;16.00;;;4.10;;
23068;SDS011;11702;50.856;4.348;2022-07-26T03:58:58;15.38;;;3.97;;
23068;SDS011;11702;50.856;4.348;2022-07-26T04:01:26;13.68;;;4.03;;
23068;SDS011;11702;50.856;4.348;2022-07-26T04:03:52;12.73;;;4.00;;
23068;SDS011;11702;50.856;4.348;2022-07-26T04:06:17;16.02;;;4.47;;
23068;SDS011;11702;50.856;4.348;2022-07-26T04:08:43;16.88;;;4.00;;
23068;SDS011;11702;50.856;4.348;2022-07-26T04:11:09;19.13;;;4.32;;
23068;SDS011;11702;50.856;4.348;2022-07-26T04:13:35;14.40;;;4.10;;
23068;SDS011;11702;50.856;4.348;2022-07-26T04:16:01;16.42;;;3.72;;
23068;SDS011;11702;50.856;4.348;2022-07-26T04:18:27;14.75;;;4.40;;
23068;SDS011;11702;50.856;4.348;2022-07-26T04:20:53;16.73;;;4.30;;
23068;SDS011;11702;50.856;4.348;2022-07-26T04:23:18;12.50;;;3.58;;
23068;SDS011;11702;50.856;4.348;2022-07-26T04:25:44;19.10;;;4.18;;
23068;SDS011;11702;50.856;4.348;2022-07-26T04:28:10;17.85;;;4.93;;
23068;SDS011;11702;50.856;4.348;2022-07-26T04:30:36;23.60;;;4.90;;
23068;SDS011;11702;50.856;4.348;2022-07-26T04:33:03;20.90;;;4.85;;
23068;SDS011;11702;50.856;4.348;2022-07-26T04:35:29;21.95;;;4.53;;
23068;SDS011;11702;50.856;4.348;2022-07-26T04:37:55;19.83;;;4.55;;
23068;SDS011;11702;50.856;4.348;2022-07-26T04:40:21;19.92;;;5.03;;
23068;SDS011;11702;50.856;4.348;2022-07-26T04:42:49;19.33;;;4.80;;
23068;SDS011;11702;50.856;4.348;2022-07-26T04:45:15;16.13;;;4.00;;
23068;SDS011;11702;50.856;4.348;2022-07-26T04:47:45;16.45;;;4.38;;
23068;SDS011;11702;50.856;4.348;2022-07-26T04:50:15;17.83;;;4.82;;
23068;SDS011;11702;50.856;4.348;2022-07-26T04:52:44;14.10;;;4.63;;
23068;SDS011;11702;50.856;4.348;2022-07-26T04:55:11;13.15;;;3.72;;
23068;SDS011;11702;50.856;4.348;2022-07-26T04:57:37;16.35;;;4.15;;
23068;SDS011;11702;50.856;4.348;2022-07-26T05:00:05;18.60;;;4.18;;
23068;SDS011;11702;50.856;4.348;2022-07-26T05:02:33;14.85;;;4.10;;
23068;SDS011;11702;50.856;4.348;2022-07-26T05:04:59;18.52;;;4.72;;
23068;SDS011;11702;50.856;4.348;2022-07-26T05:07:24;15.88;;;4.03;;
23068;SDS011;11702;50.856;4.348;2022-07-26T05:09:50;23.92;;;4.85;;
23068;SDS011;11702;50.856;4.348;2022-07-26T05:12:16;18.42;;;4.55;;
23068;SDS011;11702;50.856;4.348;2022-07-26T05:14:41;13.88;;;3.85;;
23068;SDS011;11702;50.856;4.348;2022-07-26T05:17:08;17.88;;;4.63;;
23068;SDS011;11702;50.856;4.348;2022-07-26T05:19:34;19.50;;;4.35;;
23068;SDS011;11702;50.856;4.348;2022-07-26T05:22:00;19.98;;;4.35;;
23068;SDS011;11702;50.856;4.348;2022-07-26T05:24:25;18.15;;;4.65;;
23068;SDS011;11702;50.856;4.348;2022-07-26T05:26:51;18.85;;;3.90;;
23068;SDS011;11702;50.856;4.348;2022-07-26T05:29:17;15.20;;;4.43;;
23068;SDS011;11702;50.856;4.348;2022-07-26T05:31:42;12.13;;;3.47;;
23068;SDS011;11702;50.856;4.348;2022-07-26T05:34:08;15.23;;;3.90;;
23068;SDS011;11702;50.856;4.348;2022-07-26T05:36:34;18.17;;;4.22;;
23068;SDS011;11702;50.856;4.348;2022-07-26T05:38:59;12.23;;;3.70;;
23068;SDS011;11702;50.856;4.348;2022-07-26T05:41:25;15.85;;;4.43;;
23068;SDS011;11702;50.856;4.348;2022-07-26T05:43:51;14.40;;;4.40;;
23068;SDS011;11702;50.856;4.348;2022-07-26T05:46:17;16.02;;;4.50;;
23068;SDS011;11702;50.856;4.348;2022-07-26T05:48:43;17.08;;;4.00;;
23068;SDS011;11702;50.856;4.348;2022-07-26T05:51:09;15.90;;;3.75;;
23068;SDS011;11702;50.856;4.348;2022-07-26T05:53:35;17.98;;;3.78;;
23068;SDS011;11702;50.856;4.348;2022-07-26T05:56:01;12.35;;;3.88;;
23068;SDS011;11702;50.856;4.348;2022-07-26T05:58:27;14.63;;;4.13;;
23068;SDS011;11702;50.856;4.348;2022-07-26T06:00:53;14.57;;;4.15;;
23068;SDS011;11702;50.856;4.348;2022-07-26T06:03:18;11.68;;;3.90;;
23068;SDS011;11702;50.856;4.348;2022-07-26T06:05:48;14.70;;;4.63;;
23068;SDS011;11702;50.856;4.348;2022-07-26T06:08:15;13.02;;;3.72;;
23068;SDS011;11702;50.856;4.348;2022-07-26T06:10:41;14.90;;;4.10;;
23068;SDS011;11702;50.856;4.348;2022-07-26T06:13:06;20.25;;;4.30;;
23068;SDS011;11702;50.856;4.348;2022-07-26T06:15:33;11.88;;;3.50;;
23068;SDS011;11702;50.856;4.348;2022-07-26T06:17:58;16.02;;;4.28;;
23068;SDS011;11702;50.856;4.348;2022-07-26T06:20:24;13.98;;;3.58;;
23068;SDS011;11702;50.856;4.348;2022-07-26T06:22:50;12.32;;;4.13;;
23068;SDS011;11702;50.856;4.348;2022-07-26T06:25:16;17.83;;;4.63;;
23068;SDS011;11702;50.856;4.348;2022-07-26T06:27:42;11.75;;;3.28;;
23068;SDS011;11702;50.856;4.348;2022-07-26T06:30:08;14.68;;;4.00;;
23068;SDS011;11702;50.856;4.348;2022-07-26T06:32:34;13.98;;;3.45;;
23068;SDS011;11702;50.856;4.348;2022-07-26T06:35:00;16.00;;;3.30;;
23068;SDS011;11702;50.856;4.348;2022-07-26T06:37:25;18.30;;;4.13;;
23068;SDS011;11702;50.856;4.348;2022-07-26T06:39:51;13.75;;;3.30;;
23068;SDS011;11702;50.856;4.348;2022-07-26T06:42:17;14.45;;;2.95;;
23068;SDS011;11702;50.856;4.348;2022-07-26T06:44:42;14.13;;;3.20;;
23068;SDS011;11702;50.856;4.348;2022-07-26T06:47:08;12.45;;;3.35;;
23068;SDS011;11702;50.856;4.348;2022-07-26T06:49:33;9.88;;;3.13;;
23068;SDS011;11702;50.856;4.348;2022-07-26T06:51:59;9.90;;;3.20;;
23068;SDS011;11702;50.856;4.348;2022-07-26T06:54:25;14.68;;;3.70;;
23068;SDS011;11702;50.856;4.348;2022-07-26T06:56:50;11.52;;;3.35;;
23068;SDS011;11702;50.856;4.348;2022-07-26T06:59:16;14.45;;;3.78;;
23068;SDS011;11702;50.856;4.348;2022-07-26T07:01:42;12.23;;;3.50;;
23068;SDS011;11702;50.856;4.348;2022-07-26T07:04:07;13.70;;;3.22;;
23068;SDS011;11702;50.856;4.348;2022-07-26T07:06:33;10.25;;;3.30;;
23068;SDS011;11702;50.856;4.348;2022-07-26T07:08:58;10.90;;;3.05;;
23068;SDS011;11702;50.856;4.348;2022-07-26T07:11:24;11.45;;;3.38;;
23068;SDS011;11702;50.856;4.348;2022-07-26T07:13:50;13.65;;;3.80;;
23068;SDS011;11702;50.856;4.348;2022-07-26T07:16:15;14.90;;;3.25;;
23068;SDS011;11702;50.856;4.348;2022-07-26T07:18:41;13.15;;;3.35;;
23068;SDS011;11702;50.856;4.348;2022-07-26T07:21:07;14.57;;;3.35;;
23068;SDS011;11702;50.856;4.348;2022-07-26T07:23:32;10.98;;;3.10;;
23068;SDS011;11702;50.856;4.348;2022-07-26T07:25:58;15.60;;;3.25;;
23068;SDS011;11702;50.856;4.348;2022-07-26T07:28:24;8.48;;;3.47;;
23068;SDS011;11702;50.856;4.348;2022-07-26T07:30:49;12.43;;;3.55;;
23068;SDS011;11702;50.856;4.348;2022-07-26T07:33:16;11.20;;;3.13;;
23068;SDS011;11702;50.856;4.348;2022-07-26T07:35:42;13.00;;;3.63;;
23068;SDS011;11702;50.856;4.348;2022-07-26T07:38:08;13.38;;;3.40;;
23068;SDS011;11702;50.856;4.348;2022-07-26T07:40:34;12.40;;;3.45;;
23068;SDS011;11702;50.856;4.348;2022-07-26T07:42:59;12.63;;;3.40;;
23068;SDS011;11702;50.856;4.348;2022-07-26T07:45:25;12.85;;;3.22;;
23068;SDS011;11702;50.856;4.348;2022-07-26T07:47:51;11.65;;;3.08;;
23068;SDS011;11702;50.856;4.348;2022-07-26T07:50:16;12.35;;;3.03;;
23068;SDS011;11702;50.856;4.348;2022-07-26T07:52:42;12.60;;;3.50;;
23068;SDS011;11702;50.856;4.348;2022-07-26T07:55:08;10.55;;;3.50;;
23068;SDS011;11702;50.856;4.348;2022-07-26T07:57:33;11.35;;;3.28;;
23068;SDS011;11702;50.856;4.348;2022-07-26T08:00:01;13.25;;;3.22;;
23068;SDS011;11702;50.856;4.348;2022-07-26T08:02:28;16.25;;;4.50;;
23068;SDS011;11702;50.856;4.348;2022-07-26T08:04:53;5.75;;;3.22;;
23068;SDS011;11702;50.856;4.348;2022-07-26T08:07:19;10.77;;;3.50;;
23068;SDS011;11702;50.856;4.348;2022-07-26T08:09:45;14.95;;;4.32;;
23068;SDS011;11702;50.856;4.348;2022-07-26T08:12:11;10.85;;;3.97;;
23068;SDS011;11702;50.856;4.348;2022-07-26T08:14:36;14.30;;;4.40;;
23068;SDS011;11702;50.856;4.348;2022-07-26T08:17:02;14.70;;;4.32;;
23068;SDS011;11702;50.856;4.348;2022-07-26T08:19:28;9.38;;;2.85;;
23068;SDS011;11702;50.856;4.348;2022-07-26T08:21:53;8.82;;;3.15;;
23068;SDS011;11702;50.856;4.348;2022-07-26T08:24:19;8.45;;;3.08;;
23068;SDS011;11702;50.856;4.348;2022-07-26T08:26:45;11.52;;;3.28;;
23068;SDS011;11702;50.856;4.348;2022-07-26T08:29:10;15.85;;;3.28;;
23068;SDS011;11702;50.856;4.348;2022-07-26T08:31:36;10.57;;;3.05;;
23068;SDS011;11702;50.856;4.348;2022-07-26T08:34:02;13.07;;;3.25;;
23068;SDS011;11702;50.856;4.348;2022-07-26T08:36:27;8.52;;;3.00;;
23068;SDS011;11702;50.856;4.348;2022-07-26T08:38:53;11.15;;;3.00;;
23068;SDS011;11702;50.856;4.348;2022-07-26T08:41:18;6.72;;;2.70;;
23068;SDS011;11702;50.856;4.348;2022-07-26T08:43:45;12.30;;;3.08;;
23068;SDS011;11702;50.856;4.348;2022-07-26T08:46:10;10.77;;;2.97;;
23068;SDS011;11702;50.856;4.348;2022-07-26T08:48:36;10.48;;;3.05;;
23068;SDS011;11702;50.856;4.348;2022-07-26T08:51:06;9.82;;;2.85;;
23068;SDS011;11702;50.856;4.348;2022-07-26T08:53:34;13.55;;;2.90;;
23068;SDS011;11702;50.856;4.348;2022-07-26T08:56:02;7.80;;;2.80;;
23068;SDS011;11702;50.856;4.348;2022-07-26T08:58:30;7.75;;;2.53;;
23068;SDS011;11702;50.856;4.348;2022-07-26T09:01:07;9.30;;;2.55;;
23068;SDS011;11702;50.856;4.348;2022-07-26T09:03:36;8.38;;;2.33;;
23068;SDS011;11702;50.856;4.348;2022-07-26T09:06:16;6.82;;;2.45;;
23068;SDS011;11702;50.856;4.348;2022-07-26T09:08:44;8.10;;;2.55;;
23068;SDS011;11702;50.856;4.348;2022-07-26T09:11:25;6.70;;;2.45;;
23068;SDS011;11702;50.856;4.348;2022-07-26T09:13:58;7.80;;;2.55;;
23068;SDS011;11702;50.856;4.348;2022-07-26T09:16:30;11.63;;;2.85;;
23068;SDS011;11702;50.856;4.348;2022-07-26T09:19:18;11.90;;;3.38;;
23068;SDS011;11702;50.856;4.348;2022-07-26T09:21:46;8.40;;;3.83;;
23068;SDS011;11702;50.856;4.348;2022-07-26T09:24:12;11.48;;;3.15;;
23068;SDS011;11702;50.856;4.348;2022-07-26T09:26:53;9.93;;;2.67;;
23068;SDS011;11702;50.856;4.348;2022-07-26T09:29:20;7.10;;;2.20;;
23068;SDS011;11702;50.856;4.348;2022-07-26T09:31:46;13.85;;;2.83;;
23068;SDS011;11702;50.856;4.348;2022-07-26T09:34:11;8.60;;;2.90;;
23068;SDS011;11702;50.856;4.348;2022-07-26T09:36:49;12.32;;;2.90;;
23068;SDS011;11702;50.856;4.348;2022-07-26T09:39:16;4.93;;;2.00;;
23068;SDS011;11702;50.856;4.348;2022-07-26T09:41:42;9.13;;;2.70;;
23068;SDS011;11702;50.856;4.348;2022-07-26T09:44:21;8.70;;;2.60;;
23068;SDS011;11702;50.856;4.348;2022-07-26T09:49:21;8.82;;;2.67;;
23068;SDS011;11702;50.856;4.348;2022-07-26T09:51:52;8.38;;;2.30;;
23068;SDS011;11702;50.856;4.348;2022-07-26T09:54:33;6.53;;;2.10;;
23068;SDS011;11702;50.856;4.348;2022-07-26T09:56:59;7.53;;;2.67;;
23068;SDS011;11702;50.856;4.348;2022-07-26T09:59:27;8.40;;;2.47;;
23068;SDS011;11702;50.856;4.348;2022-07-26T10:01:53;6.38;;;2.20;;
23068;SDS011;11702;50.856;4.348;2022-07-26T10:04:20;9.93;;;2.45;;
23068;SDS011;11702;50.856;4.348;2022-07-26T10:06:46;6.40;;;2.42;;
23068;SDS011;11702;50.856;4.348;2022-07-26T10:09:12;5.63;;;2.13;;
23068;SDS011;11702;50.856;4.348;2022-07-26T10:11:43;7.22;;;2.00;;
23068;SDS011;11702;50.856;4.348;2022-07-26T10:16:57;4.85;;;2.20;;
23068;SDS011;11702;50.856;4.348;2022-07-26T10:19:36;4.13;;;2.00;;
23068;SDS011;11702;50.856;4.348;2022-07-26T10:27:44;6.38;;;2.15;;
23068;SDS011;11702;50.856;4.348;2022-07-26T10:33:02;12.98;;;2.85;;
23068;SDS011;11702;50.856;4.348;2022-07-26T10:35:35;4.95;;;1.98;;
23068;SDS011;11702;50.856;4.348;2022-07-26T10:40:55;5.60;;;2.17;;
23068;SDS011;11702;50.856;4.348;2022-07-26T10:43:24;6.88;;;2.17;;
23068;SDS011;11702;50.856;4.348;2022-07-26T10:49:08;8.23;;;2.08;;
23068;SDS011;11702;50.856;4.348;2022-07-26T10:51:37;5.05;;;1.67;;
23068;SDS011;11702;50.856;4.348;2022-07-26T10:54:06;4.70;;;1.65;;
23068;SDS011;11702;50.856;4.348;2022-07-26T10:59:02;6.95;;;1.45;;
23068;SDS011;11702;50.856;4.348;2022-07-26T11:01:47;4.85;;;1.77;;
23068;SDS011;11702;50.856;4.348;2022-07-26T11:04:22;5.30;;;1.45;;
23068;SDS011;11702;50.856;4.348;2022-07-26T11:06:48;3.38;;;1.38;;
23068;SDS011;11702;50.856;4.348;2022-07-26T11:09:14;2.50;;;1.40;;
23068;SDS011;11702;50.856;4.348;2022-07-26T11:11:42;3.95;;;1.55;;
23068;SDS011;11702;50.856;4.348;2022-07-26T11:14:10;4.35;;;1.50;;
23068;SDS011;11702;50.856;4.348;2022-07-26T11:16:45;6.55;;;1.85;;
23068;SDS011;11702;50.856;4.348;2022-07-26T11:19:22;2.90;;;1.20;;
23068;SDS011;11702;50.856;4.348;2022-07-26T11:21:55;5.22;;;2.08;;
23068;SDS011;11702;50.856;4.348;2022-07-26T11:24:22;4.68;;;1.70;;
23068;SDS011;11702;50.856;4.348;2022-07-26T11:26:50;7.00;;;1.50;;
23068;SDS011;11702;50.856;4.348;2022-07-26T11:29:24;4.63;;;1.63;;
23068;SDS011;11702;50.856;4.348;2022-07-26T11:31:51;5.47;;;1.63;;
23068;SDS011;11702;50.856;4.348;2022-07-26T11:34:18;7.10;;;1.50;;
23068;SDS011;11702;50.856;4.348;2022-07-26T11:36:46;5.13;;;1.80;;
23068;SDS011;11702;50.856;4.348;2022-07-26T11:39:14;3.72;;;1.50;;
23068;SDS011;11702;50.856;4.348;2022-07-26T11:41:44;7.18;;;1.65;;
23068;SDS011;11702;50.856;4.348;2022-07-26T11:44:17;6.65;;;1.83;;
23068;SDS011;11702;50.856;4.348;2022-07-26T11:46:44;3.30;;;1.50;;
23068;SDS011;11702;50.856;4.348;2022-07-26T11:51:47;2.40;;;1.35;;
23068;SDS011;11702;50.856;4.348;2022-07-26T11:54:21;1.95;;;1.15;;
23068;SDS011;11702;50.856;4.348;2022-07-26T11:56:49;2.85;;;1.55;;
23068;SDS011;11702;50.856;4.348;2022-07-26T11:59:19;6.68;;;1.40;;
23068;SDS011;11702;50.856;4.348;2022-07-26T12:01:47;4.30;;;1.30;;
23068;SDS011;11702;50.856;4.348;2022-07-26T12:04:23;2.35;;;1.50;;
23068;SDS011;11702;50.856;4.348;2022-07-26T12:06:53;2.42;;;1.38;;
23068;SDS011;11702;50.856;4.348;2022-07-26T12:09:30;2.45;;;1.75;;
23068;SDS011;11702;50.856;4.348;2022-07-26T12:11:56;4.88;;;1.95;;
23068;SDS011;11702;50.856;4.348;2022-07-26T12:14:26;7.35;;;2.40;;
23068;SDS011;11702;50.856;4.348;2022-07-26T12:16:53;3.47;;;2.33;;
23068;SDS011;11702;50.856;4.348;2022-07-26T12:21:46;2.92;;;2.38;;
23068;SDS011;11702;50.856;4.348;2022-07-26T12:27:22;3.70;;;2.00;;
23068;SDS011;11702;50.856;4.348;2022-07-26T12:32:16;3.88;;;1.67;;
23068;SDS011;11702;50.856;4.348;2022-07-26T12:37:34;1.95;;;1.75;;
23068;SDS011;11702;50.856;4.348;2022-07-26T12:42:41;4.85;;;1.92;;
23068;SDS011;11702;50.856;4.348;2022-07-26T12:45:08;3.25;;;1.95;;
23068;SDS011;11702;50.856;4.348;2022-07-26T12:47:35;5.30;;;1.83;;
23068;SDS011;11702;50.856;4.348;2022-07-26T12:50:03;1.60;;;1.50;;
23068;SDS011;11702;50.856;4.348;2022-07-26T12:52:29;1.77;;;1.40;;
23068;SDS011;11702;50.856;4.348;2022-07-26T12:54:57;2.70;;;1.30;;
23068;SDS011;11702;50.856;4.348;2022-07-26T12:57:23;3.92;;;1.23;;
23068;SDS011;11702;50.856;4.348;2022-07-26T12:59:48;3.15;;;1.65;;
23068;SDS011;11702;50.856;4.348;2022-07-26T13:02:17;2.30;;;1.42;;
23068;SDS011;11702;50.856;4.348;2022-07-26T13:04:43;2.47;;;1.40;;
23068;SDS011;11702;50.856;4.348;2022-07-26T13:07:10;3.28;;;1.80;;
23068;SDS011;11702;50.856;4.348;2022-07-26T13:09:36;4.38;;;1.20;;
23068;SDS011;11702;50.856;4.348;2022-07-26T13:12:02;2.00;;;1.42;;
23068;SDS011;11702;50.856;4.348;2022-07-26T13:14:30;2.97;;;1.20;;
23068;SDS011;11702;50.856;4.348;2022-07-26T13:17:00;4.28;;;1.52;;
23068;SDS011;11702;50.856;4.348;2022-07-26T13:19:26;2.47;;;1.48;;
23068;SDS011;11702;50.856;4.348;2022-07-26T13:21:52;4.18;;;1.40;;
23068;SDS011;11702;50.856;4.348;2022-07-26T13:24:19;5.97;;;1.65;;
23068;SDS011;11702;50.856;4.348;2022-07-26T13:26:45;4.45;;;1.20;;
23068;SDS011;11702;50.856;4.348;2022-07-26T13:29:10;4.57;;;1.30;;
23068;SDS011;11702;50.856;4.348;2022-07-26T13:31:36;3.03;;;1.77;;
23068;SDS011;11702;50.856;4.348;2022-07-26T13:34:02;3.67;;;1.50;;
23068;SDS011;11702;50.856;4.348;2022-07-26T13:36:29;3.70;;;1.30;;
23068;SDS011;11702;50.856;4.348;2022-07-26T13:38:54;3.53;;;1.17;;
23068;SDS011;11702;50.856;4.348;2022-07-26T13:41:20;1.98;;;1.30;;
23068;SDS011;11702;50.856;4.348;2022-07-26T13:43:46;2.90;;;1.40;;
23068;SDS011;11702;50.856;4.348;2022-07-26T13:46:11;3.85;;;1.20;;
23068;SDS011;11702;50.856;4.348;2022-07-26T13:48:37;3.00;;;1.23;;
23068;SDS011;11702;50.856;4.348;2022-07-26T13:51:03;1.75;;;0.90;;
23068;SDS011;11702;50.856;4.348;2022-07-26T13:53:29;3.30;;;1.08;;
23068;SDS011;11702;50.856;4.348;2022-07-26T13:55:55;2.97;;;1.17;;
23068;SDS011;11702;50.856;4.348;2022-07-26T13:58:20;4.07;;;1.20;;
23068;SDS011;11702;50.856;4.348;2022-07-26T14:00:46;2.85;;;1.20;;
23068;SDS011;11702;50.856;4.348;2022-07-26T14:03:13;4.30;;;1.33;;
23068;SDS011;11702;50.856;4.348;2022-07-26T14:05:39;2.90;;;1.10;;
23068;SDS011;11702;50.856;4.348;2022-07-26T14:08:04;5.93;;;1.05;;
23068;SDS011;11702;50.856;4.348;2022-07-26T14:10:30;3.17;;;1.15;;
23068;SDS011;11702;50.856;4.348;2022-07-26T14:13:01;3.33;;;0.93;;
23068;SDS011;11702;50.856;4.348;2022-07-26T14:15:26;2.47;;;1.25;;
23068;SDS011;11702;50.856;4.348;2022-07-26T14:17:52;2.25;;;1.00;;
23068;SDS011;11702;50.856;4.348;2022-07-26T14:20:18;3.05;;;1.27;;
23068;SDS011;11702;50.856;4.348;2022-07-26T14:22:44;3.63;;;1.20;;
23068;SDS011;11702;50.856;4.348;2022-07-26T14:25:10;5.70;;;1.40;;
23068;SDS011;11702;50.856;4.348;2022-07-26T14:27:36;7.00;;;1.35;;
23068;SDS011;11702;50.856;4.348;2022-07-26T14:30:02;5.15;;;0.95;;
23068;SDS011;11702;50.856;4.348;2022-07-26T14:32:28;3.50;;;1.10;;
23068;SDS011;11702;50.856;4.348;2022-07-26T14:34:54;6.53;;;1.30;;
23068;SDS011;11702;50.856;4.348;2022-07-26T14:37:19;3.22;;;1.15;;
23068;SDS011;11702;50.856;4.348;2022-07-26T14:39:45;2.92;;;1.00;;
23068;SDS011;11702;50.856;4.348;2022-07-26T14:42:11;4.35;;;1.33;;
23068;SDS011;11702;50.856;4.348;2022-07-26T14:44:36;5.43;;;1.33;;
23068;SDS011;11702;50.856;4.348;2022-07-26T14:47:02;2.75;;;1.13;;
23068;SDS011;11702;50.856;4.348;2022-07-26T14:49:28;4.65;;;1.50;;
23068;SDS011;11702;50.856;4.348;2022-07-26T14:51:53;2.22;;;1.02;;
23068;SDS011;11702;50.856;4.348;2022-07-26T14:54:19;4.78;;;1.23;;
23068;SDS011;11702;50.856;4.348;2022-07-26T14:56:45;4.07;;;1.15;;
23068;SDS011;11702;50.856;4.348;2022-07-26T14:59:12;8.13;;;1.58;;
23068;SDS011;11702;50.856;4.348;2022-07-26T15:01:37;4.30;;;1.33;;
23068;SDS011;11702;50.856;4.348;2022-07-26T15:04:03;4.82;;;1.40;;
23068;SDS011;11702;50.856;4.348;2022-07-26T15:06:29;5.47;;;1.83;;
23068;SDS011;11702;50.856;4.348;2022-07-26T15:08:54;4.65;;;1.60;;
23068;SDS011;11702;50.856;4.348;2022-07-26T15:11:20;7.13;;;1.63;;
23068;SDS011;11702;50.856;4.348;2022-07-26T15:13:46;3.42;;;1.45;;
23068;SDS011;11702;50.856;4.348;2022-07-26T15:16:11;5.05;;;1.58;;
23068;SDS011;11702;50.856;4.348;2022-07-26T15:18:37;3.65;;;1.20;;
23068;SDS011;11702;50.856;4.348;2022-07-26T15:21:02;5.07;;;1.45;;